Thrift, Georgia
Current Conditions -  °F | °C
As of 5:15 PM on Monday 26 Jan 2015 (Local Time) from KJYL Reporting Station
Overcast Overcast  
Wind Chill: 52°   Ceiling: 4600
Heat Index: 52°   Visibility: 10mi
Dew Point: 38°   Wind: 21mph
Humidity: 60%   Direction: 300°WNW
Pressure: 29.76"   Gusts: 25mph
Location:  32.7727°N, 81.9794°W
Report Text: KJYL 262215Z AUTO 30018G22KT 10SM OVC046 11/04 A2976 RMK AO2 T01100036
Loading
Personal Weather Stations






























Interactive Weather Map New forecast layout! Learn more

10-Day Weather Forecast

Advertisements
Track Severe Weather on mobile